createdAt,value
2024-01-24T00:00:16.910Z,994.72
2024-01-24T00:01:16.985Z,994.67
2024-01-24T00:02:16.931Z,994.64
2024-01-24T00:03:17.043Z,994.63
2024-01-24T00:04:16.895Z,994.61
2024-01-24T00:05:16.895Z,994.57
2024-01-24T00:06:16.924Z,994.53
2024-01-24T00:07:17.049Z,994.49
2024-01-24T00:08:16.964Z,994.45
2024-01-24T00:09:16.880Z,994.42
2024-01-24T00:10:16.901Z,994.39
2024-01-24T00:11:16.843Z,994.36
2024-01-24T00:12:16.973Z,994.33
2024-01-24T00:13:16.797Z,994.30
2024-01-24T00:14:16.828Z,994.28
2024-01-24T00:15:16.871Z,994.26
2024-01-24T00:16:16.812Z,994.25
2024-01-24T00:17:16.875Z,994.25
2024-01-24T00:18:16.897Z,994.22
2024-01-24T00:19:16.876Z,994.20
2024-01-24T00:20:16.745Z,994.18
2024-01-24T00:21:16.772Z,994.16
2024-01-24T00:22:16.743Z,994.13
2024-01-24T00:23:16.701Z,994.09
2024-01-24T00:24:16.832Z,994.08
2024-01-24T00:25:16.661Z,994.09
2024-01-24T00:26:16.705Z,994.07
2024-01-24T00:27:16.836Z,994.07
2024-01-24T00:28:16.694Z,994.08
2024-01-24T00:29:16.680Z,994.09
2024-01-24T00:30:16.678Z,994.10
2024-01-24T00:31:16.699Z,994.09
2024-01-24T00:32:16.702Z,994.06
2024-01-24T00:33:16.633Z,994.04
2024-01-24T00:34:16.620Z,994.05
2024-01-24T00:35:16.592Z,994.00
2024-01-24T00:36:16.680Z,994.00
2024-01-24T00:37:16.607Z,994.01
2024-01-24T00:38:16.599Z,993.98
2024-01-24T00:39:16.686Z,993.94
2024-01-24T00:40:16.559Z,993.89
2024-01-24T00:41:16.617Z,993.88
2024-01-24T00:42:16.628Z,993.88
2024-01-24T00:43:16.577Z,993.91
2024-01-24T00:44:16.557Z,993.89
2024-01-24T00:45:16.589Z,993.86
2024-01-24T00:46:16.694Z,993.85
2024-01-24T00:47:16.486Z,993.87
2024-01-24T00:48:16.571Z,993.92
2024-01-24T00:49:16.540Z,993.89
2024-01-24T00:50:16.563Z,993.73
2024-01-24T00:51:16.577Z,993.73
2024-01-24T00:52:16.403Z,993.79
2024-01-24T00:53:16.446Z,993.77
2024-01-24T00:54:16.494Z,993.78
2024-01-24T00:55:16.438Z,993.77
2024-01-24T00:56:16.530Z,993.74
2024-01-24T00:57:16.454Z,993.78
2024-01-24T00:58:16.454Z,993.72
2024-01-24T00:59:16.455Z,993.73
2024-01-24T01:00:16.424Z,993.73
2024-01-24T01:01:16.465Z,993.71
2024-01-24T01:02:16.341Z,993.72
2024-01-24T01:03:16.420Z,993.71
2024-01-24T01:04:16.431Z,993.66
2024-01-24T01:05:16.421Z,993.62
2024-01-24T01:06:16.410Z,993.62
2024-01-24T01:07:16.311Z,993.58
2024-01-24T01:08:16.346Z,993.53
2024-01-24T01:09:16.291Z,993.43
2024-01-24T01:10:16.276Z,993.44
2024-01-24T01:11:16.391Z,993.47
2024-01-24T01:12:16.387Z,993.41
2024-01-24T01:13:16.299Z,993.30
2024-01-24T01:14:16.235Z,993.36
2024-01-24T01:15:16.315Z,993.36
2024-01-24T01:16:16.334Z,993.36
2024-01-24T01:17:16.245Z,993.34
2024-01-24T01:18:16.234Z,993.28
2024-01-24T01:19:16.359Z,993.34
2024-01-24T01:20:16.112Z,993.30
2024-01-24T01:21:16.285Z,993.25
2024-01-24T01:22:16.318Z,993.24
2024-01-24T01:23:16.172Z,993.22
2024-01-24T01:24:16.228Z,993.19
2024-01-24T01:25:16.125Z,993.15
2024-01-24T01:26:16.172Z,993.11
2024-01-24T01:27:16.241Z,993.05
2024-01-24T01:28:16.126Z,993.09
2024-01-24T01:29:16.133Z,993.05
2024-01-24T01:30:16.206Z,993.03
2024-01-24T01:31:16.149Z,992.95
2024-01-24T01:32:16.036Z,992.88
2024-01-24T01:33:16.206Z,992.85
2024-01-24T01:34:16.181Z,992.82
2024-01-24T01:35:16.164Z,992.74
2024-01-24T01:36:22.828Z,992.71
2024-01-24T01:37:16.204Z,992.69
2024-01-24T01:38:16.143Z,992.67
2024-01-24T01:39:16.110Z,992.65
2024-01-24T01:40:16.031Z,992.59
2024-01-24T01:41:16.128Z,992.56
2024-01-24T01:42:16.093Z,992.55
2024-01-24T01:43:15.948Z,992.55
2024-01-24T01:44:15.950Z,992.50
2024-01-24T01:45:16.153Z,992.46
2024-01-24T01:46:15.995Z,992.41
2024-01-24T01:47:15.964Z,992.42
2024-01-24T01:48:16.033Z,992.41
2024-01-24T01:49:16.093Z,992.40
2024-01-24T01:50:15.941Z,992.38
2024-01-24T01:51:16.001Z,992.32
2024-01-24T01:52:15.883Z,992.29
2024-01-24T01:53:15.894Z,992.28
2024-01-24T01:54:15.929Z,992.28
2024-01-24T01:55:15.841Z,992.24
2024-01-24T01:56:15.976Z,992.21
2024-01-24T01:57:15.914Z,992.19
2024-01-24T01:58:15.863Z,992.16
2024-01-24T01:59:15.791Z,992.12
2024-01-24T02:00:15.862Z,992.08
2024-01-24T02:01:16.073Z,992.04
2024-01-24T02:02:15.760Z,992.01
2024-01-24T02:03:15.878Z,991.96
2024-01-24T02:04:15.796Z,991.91
2024-01-24T02:05:15.873Z,991.87
2024-01-24T02:06:15.874Z,991.83
2024-01-24T02:07:15.814Z,991.82
2024-01-24T02:08:15.705Z,991.80
2024-01-24T02:09:15.797Z,991.78
2024-01-24T02:10:15.785Z,991.75
2024-01-24T02:11:15.705Z,991.74
2024-01-24T02:12:15.777Z,991.75
2024-01-24T02:13:15.658Z,991.74
2024-01-24T02:14:15.684Z,991.70
2024-01-24T02:15:15.727Z,991.69
2024-01-24T02:16:18.997Z,991.70
2024-01-24T02:17:15.676Z,991.66
2024-01-24T02:18:15.817Z,991.62
2024-01-24T02:19:15.688Z,991.60
2024-01-24T02:20:15.687Z,991.59
2024-01-24T02:21:15.641Z,991.56
2024-01-24T02:22:15.481Z,991.56
2024-01-24T02:23:15.597Z,991.57
2024-01-24T02:24:15.608Z,991.58
2024-01-24T02:25:15.607Z,991.58
2024-01-24T02:26:15.633Z,991.57
2024-01-24T02:27:15.541Z,991.58
2024-01-24T02:28:15.525Z,991.57
2024-01-24T02:29:15.605Z,991.56
2024-01-24T02:30:15.603Z,991.53
2024-01-24T02:31:15.463Z,991.52
2024-01-24T02:32:15.522Z,991.55
2024-01-24T02:33:15.683Z,991.54
2024-01-24T02:34:15.609Z,991.54
2024-01-24T02:35:15.569Z,991.53
2024-01-24T02:36:15.512Z,991.50
2024-01-24T02:37:15.483Z,991.51
2024-01-24T02:38:15.472Z,991.49
2024-01-24T02:39:15.445Z,991.45
2024-01-24T02:40:15.504Z,991.44
2024-01-24T02:41:15.365Z,991.43
2024-01-24T02:42:15.495Z,991.45
2024-01-24T02:43:15.339Z,991.45
2024-01-24T02:44:15.364Z,991.41
2024-01-24T02:45:15.492Z,991.38
2024-01-24T02:46:15.428Z,991.36
2024-01-24T02:47:15.356Z,991.31
2024-01-24T02:48:15.579Z,991.26
2024-01-24T02:49:15.415Z,991.24
2024-01-24T02:50:15.411Z,991.22
2024-01-24T02:51:15.386Z,991.21
2024-01-24T02:52:16.140Z,991.20
2024-01-24T02:53:15.252Z,991.20
2024-01-24T02:54:15.339Z,991.19
2024-01-24T02:55:15.409Z,991.14
2024-01-24T02:56:15.286Z,991.15
2024-01-24T02:57:15.230Z,991.16
2024-01-24T02:58:15.271Z,991.14
2024-01-24T02:59:15.363Z,991.15
2024-01-24T03:00:15.291Z,991.11
2024-01-24T03:01:15.246Z,991.10
2024-01-24T03:02:15.192Z,991.06
2024-01-24T03:03:15.205Z,991.08
2024-01-24T03:04:15.373Z,990.98
2024-01-24T03:05:15.176Z,990.88
2024-01-24T03:06:15.320Z,990.84
2024-01-24T03:07:15.241Z,990.77
2024-01-24T03:08:15.157Z,990.67
2024-01-24T03:09:15.253Z,990.55
2024-01-24T03:10:15.187Z,990.46
2024-01-24T03:11:15.170Z,990.40
2024-01-24T03:12:15.127Z,990.34
2024-01-24T03:13:15.193Z,990.27
2024-01-24T03:14:15.142Z,990.20
2024-01-24T03:15:15.136Z,990.18
2024-01-24T03:16:15.066Z,990.20
2024-01-24T03:17:15.028Z,990.17
2024-01-24T03:18:15.078Z,990.10
2024-01-24T03:19:15.305Z,990.07
2024-01-24T03:20:14.996Z,990.06
2024-01-24T03:21:14.992Z,990.05
2024-01-24T03:22:15.037Z,990.08
2024-01-24T03:23:15.030Z,990.14
2024-01-24T03:24:15.032Z,990.17
2024-01-24T03:25:14.997Z,990.19
2024-01-24T03:26:15.047Z,990.17
2024-01-24T03:27:14.959Z,990.20
2024-01-24T03:28:14.942Z,990.28
2024-01-24T03:29:14.960Z,990.32
2024-01-24T03:30:14.976Z,990.30
2024-01-24T03:31:14.983Z,990.28
2024-01-24T03:32:14.893Z,990.33
2024-01-24T03:33:14.967Z,990.30
2024-01-24T03:34:15.198Z,990.25
2024-01-24T03:35:14.862Z,990.28
2024-01-24T03:36:14.880Z,990.31
2024-01-24T03:37:14.902Z,990.31
2024-01-24T03:38:14.840Z,990.31
2024-01-24T03:39:14.935Z,990.33
2024-01-24T03:40:14.896Z,990.28
2024-01-24T03:41:14.757Z,990.27
2024-01-24T03:42:14.871Z,990.25
2024-01-24T03:43:14.790Z,990.20
2024-01-24T03:44:14.870Z,990.16
2024-01-24T03:45:14.813Z,990.14
2024-01-24T03:46:14.749Z,990.14
2024-01-24T03:47:14.821Z,990.14
2024-01-24T03:48:14.969Z,990.14
2024-01-24T03:49:14.874Z,990.14
2024-01-24T03:50:14.827Z,990.12
2024-01-24T03:51:14.715Z,990.13
2024-01-24T03:52:14.699Z,990.15
2024-01-24T03:53:14.744Z,990.17
2024-01-24T03:54:14.729Z,990.15
2024-01-24T03:55:14.675Z,990.12
2024-01-24T03:56:14.675Z,990.05
2024-01-24T03:57:14.711Z,990.10
2024-01-24T03:58:14.732Z,990.03
2024-01-24T03:59:14.681Z,989.94
2024-01-24T04:00:14.745Z,989.99
2024-01-24T04:01:14.734Z,989.90
2024-01-24T04:02:14.724Z,989.94
2024-01-24T04:03:14.745Z,989.91
2024-01-24T04:04:14.647Z,989.93
2024-01-24T04:05:14.591Z,989.95
2024-01-24T04:06:14.731Z,989.93
2024-01-24T04:07:14.677Z,989.86
2024-01-24T04:08:14.526Z,989.89
2024-01-24T04:09:14.624Z,989.88
2024-01-24T04:10:14.560Z,989.82
2024-01-24T04:11:14.577Z,989.80
2024-01-24T04:12:14.664Z,989.85
2024-01-24T04:13:14.490Z,989.90
2024-01-24T04:14:14.528Z,989.88
2024-01-24T04:15:14.603Z,989.79
2024-01-24T04:16:14.471Z,989.81
2024-01-24T04:17:14.543Z,989.83
2024-01-24T04:18:14.645Z,989.80
2024-01-24T04:19:14.503Z,989.79
2024-01-24T04:20:14.471Z,989.81
2024-01-24T04:21:14.502Z,989.85
2024-01-24T04:22:14.477Z,989.84
2024-01-24T04:23:14.312Z,989.91
2024-01-24T04:24:14.483Z,989.90
2024-01-24T04:25:14.431Z,989.96
2024-01-24T04:26:14.470Z,989.95
2024-01-24T04:27:14.325Z,989.95
2024-01-24T04:28:14.347Z,989.98
2024-01-24T04:29:14.309Z,989.98
2024-01-24T04:30:14.407Z,989.99
2024-01-24T04:31:14.387Z,989.95
2024-01-24T04:32:14.389Z,989.96
2024-01-24T04:33:14.378Z,989.95
2024-01-24T04:34:14.369Z,989.93
2024-01-24T04:35:14.375Z,989.92
2024-01-24T04:36:14.393Z,989.88
2024-01-24T04:37:14.266Z,989.89
2024-01-24T04:38:14.259Z,989.87
2024-01-24T04:39:14.300Z,989.83
2024-01-24T04:40:14.400Z,989.79
2024-01-24T04:41:14.322Z,989.74
2024-01-24T04:42:16.917Z,989.70
2024-01-24T04:43:14.231Z,989.66
2024-01-24T04:44:14.221Z,989.61
2024-01-24T04:45:14.207Z,989.58
2024-01-24T04:46:14.281Z,989.59
2024-01-24T04:47:14.275Z,989.60
2024-01-24T04:48:14.303Z,989.60
2024-01-24T04:49:26.157Z,989.61
2024-01-24T04:50:14.429Z,989.63
2024-01-24T04:51:14.276Z,989.65
2024-01-24T04:52:14.187Z,989.66
2024-01-24T04:53:14.141Z,989.70
2024-01-24T04:54:14.220Z,989.71
2024-01-24T04:55:14.251Z,989.72
2024-01-24T04:56:14.191Z,989.72
2024-01-24T04:57:14.253Z,989.67
2024-01-24T04:58:14.196Z,989.64
2024-01-24T04:59:14.048Z,989.66
2024-01-24T05:00:14.400Z,989.63
2024-01-24T05:01:14.158Z,989.65
2024-01-24T05:02:14.074Z,989.65
2024-01-24T05:03:14.093Z,989.67
2024-01-24T05:04:14.163Z,989.67
2024-01-24T05:05:14.097Z,989.65
2024-01-24T05:06:14.071Z,989.62
2024-01-24T05:07:14.059Z,989.62
2024-01-24T05:08:14.012Z,989.61
2024-01-24T05:09:14.111Z,989.60
2024-01-24T05:10:13.960Z,989.59
2024-01-24T05:11:13.949Z,989.60
2024-01-24T05:12:14.086Z,989.62
2024-01-24T05:13:13.973Z,989.64
2024-01-24T05:14:13.989Z,989.62
2024-01-24T05:15:13.964Z,989.62
2024-01-24T05:16:13.925Z,989.65
2024-01-24T05:17:13.883Z,989.62
2024-01-24T05:18:14.027Z,989.63
2024-01-24T05:19:14.059Z,989.65
2024-01-24T05:20:13.926Z,989.64
2024-01-24T05:21:13.905Z,989.65
2024-01-24T05:22:13.824Z,989.65
2024-01-24T05:23:13.826Z,989.62
2024-01-24T05:24:13.904Z,989.65
2024-01-24T05:25:13.801Z,989.61
2024-01-24T05:26:13.890Z,989.58
2024-01-24T05:27:13.876Z,989.55
2024-01-24T05:28:13.940Z,989.51
2024-01-24T05:29:13.862Z,989.50
2024-01-24T05:30:20.276Z,989.48
2024-01-24T05:31:13.766Z,989.45
2024-01-24T05:32:13.649Z,989.47
2024-01-24T05:33:13.935Z,989.48
2024-01-24T05:34:13.832Z,989.47
2024-01-24T05:35:13.702Z,989.47
2024-01-24T05:36:13.737Z,989.47
2024-01-24T05:37:13.725Z,989.45
2024-01-24T05:38:13.710Z,989.40
2024-01-24T05:39:13.705Z,989.37
2024-01-24T05:40:13.655Z,989.35
2024-01-24T05:41:13.647Z,989.36
2024-01-24T05:42:13.768Z,989.38
2024-01-24T05:43:13.792Z,989.41
2024-01-24T05:44:13.638Z,989.37
2024-01-24T05:45:13.711Z,989.38
2024-01-24T05:46:13.612Z,989.41
2024-01-24T05:47:13.550Z,989.39
2024-01-24T05:48:13.848Z,989.44
2024-01-24T05:49:13.745Z,989.55
2024-01-24T05:50:13.583Z,989.58
2024-01-24T05:51:13.598Z,989.63
2024-01-24T05:52:13.623Z,989.64
2024-01-24T05:53:13.640Z,989.70
2024-01-24T05:54:13.560Z,989.78
2024-01-24T05:55:13.788Z,989.79
2024-01-24T05:56:13.504Z,989.75
2024-01-24T05:57:13.629Z,989.67
2024-01-24T05:58:13.569Z,989.61
2024-01-24T05:59:15.565Z,989.57
2024-01-24T06:00:13.573Z,989.53
2024-01-24T06:01:13.632Z,989.51
2024-01-24T06:02:13.584Z,989.49
2024-01-24T06:03:13.535Z,989.47
2024-01-24T06:04:13.576Z,989.46
2024-01-24T06:05:13.737Z,989.43
2024-01-24T06:06:13.550Z,989.43
2024-01-24T06:07:13.632Z,989.45
2024-01-24T06:08:13.389Z,989.52
2024-01-24T06:09:13.532Z,989.57
2024-01-24T06:10:13.371Z,989.61
2024-01-24T06:11:13.353Z,989.58
2024-01-24T06:12:13.488Z,989.59
2024-01-24T06:13:13.338Z,989.56
2024-01-24T06:14:13.356Z,989.62
2024-01-24T06:15:13.470Z,989.58
2024-01-24T06:16:13.335Z,989.59
2024-01-24T06:17:13.437Z,989.54
2024-01-24T06:18:13.316Z,989.49
2024-01-24T06:19:13.398Z,989.48
2024-01-24T06:20:13.326Z,989.47
2024-01-24T06:21:13.356Z,989.44
2024-01-24T06:22:13.315Z,989.41
2024-01-24T06:23:13.237Z,989.44
2024-01-24T06:24:13.257Z,989.49
2024-01-24T06:25:13.284Z,989.52
2024-01-24T06:26:13.288Z,989.56
2024-01-24T06:27:13.254Z,989.60
2024-01-24T06:28:13.202Z,989.62
2024-01-24T06:29:13.188Z,989.63
2024-01-24T06:30:20.091Z,989.61
2024-01-24T06:31:13.268Z,989.59
2024-01-24T06:32:13.108Z,989.58
2024-01-24T06:33:13.132Z,989.58
2024-01-24T06:34:13.169Z,989.58
2024-01-24T06:35:13.095Z,989.57
2024-01-24T06:36:13.180Z,989.59
2024-01-24T06:37:13.127Z,989.57
2024-01-24T06:38:13.071Z,989.56
2024-01-24T06:39:13.040Z,989.62
2024-01-24T06:40:13.149Z,989.64
2024-01-24T06:41:13.089Z,989.67
2024-01-24T06:42:13.013Z,989.73
2024-01-24T06:43:13.107Z,989.74
2024-01-24T06:44:13.002Z,989.70
2024-01-24T06:45:13.093Z,989.67
2024-01-24T06:46:13.031Z,989.66
2024-01-24T06:47:12.972Z,989.65
2024-01-24T06:48:13.002Z,989.61
2024-01-24T06:49:13.030Z,989.54
2024-01-24T06:50:13.024Z,989.46
2024-01-24T06:51:12.943Z,989.40
2024-01-24T06:52:12.978Z,989.40
2024-01-24T06:53:12.901Z,989.43
2024-01-24T06:54:12.939Z,989.45
2024-01-24T06:55:13.061Z,989.47
2024-01-24T06:56:12.930Z,989.47
2024-01-24T06:57:12.769Z,989.49
2024-01-24T06:58:12.848Z,989.48
2024-01-24T06:59:12.871Z,989.49
2024-01-24T07:00:12.859Z,989.46
2024-01-24T07:01:12.906Z,989.40
2024-01-24T07:02:12.845Z,989.35
2024-01-24T07:03:12.838Z,989.36
2024-01-24T07:04:12.956Z,989.36
2024-01-24T07:05:12.874Z,989.36
2024-01-24T07:06:12.814Z,989.35
2024-01-24T07:07:12.772Z,989.34
2024-01-24T07:08:12.741Z,989.35
2024-01-24T07:09:12.791Z,989.37
2024-01-24T07:10:13.252Z,989.31
2024-01-24T07:11:12.778Z,989.30
2024-01-24T07:12:12.796Z,989.27
2024-01-24T07:13:12.700Z,989.28
2024-01-24T07:14:12.733Z,989.32
2024-01-24T07:15:12.772Z,989.39
2024-01-24T07:16:12.699Z,989.44
2024-01-24T07:17:12.660Z,989.46
2024-01-24T07:18:12.767Z,989.40
2024-01-24T07:19:12.761Z,989.33
2024-01-24T07:20:12.727Z,989.21
2024-01-24T07:21:12.658Z,989.24
2024-01-24T07:22:12.675Z,989.13
2024-01-24T07:23:12.624Z,989.19
2024-01-24T07:24:12.621Z,989.27
2024-01-24T07:25:12.693Z,989.23
2024-01-24T07:26:12.613Z,989.24
2024-01-24T07:27:12.615Z,989.20
2024-01-24T07:28:12.650Z,989.12
2024-01-24T07:29:12.672Z,989.16
2024-01-24T07:30:12.617Z,989.16
2024-01-24T07:31:12.520Z,989.05
2024-01-24T07:32:12.601Z,989.12
2024-01-24T07:33:12.657Z,989.15
2024-01-24T07:34:12.673Z,989.16
2024-01-24T07:35:12.539Z,989.27
2024-01-24T07:36:12.498Z,989.29
2024-01-24T07:37:12.486Z,989.24
2024-01-24T07:38:12.474Z,989.12
2024-01-24T07:39:12.554Z,989.18
2024-01-24T07:40:12.512Z,989.23
2024-01-24T07:41:12.452Z,989.31
2024-01-24T07:42:12.452Z,989.37
2024-01-24T07:43:12.471Z,989.40
2024-01-24T07:44:12.532Z,989.25
2024-01-24T07:45:12.418Z,989.23
2024-01-24T07:46:12.534Z,989.11
2024-01-24T07:47:12.398Z,989.27
2024-01-24T07:48:12.540Z,989.20
2024-01-24T07:49:12.621Z,989.23
2024-01-24T07:50:12.350Z,989.14
2024-01-24T07:51:12.387Z,989.03
2024-01-24T07:52:13.207Z,989.03
2024-01-24T07:53:12.326Z,988.96
2024-01-24T07:54:12.391Z,989.06
2024-01-24T07:55:13.201Z,989.18
2024-01-24T07:56:20.720Z,989.16
2024-01-24T07:57:12.349Z,989.06
2024-01-24T07:58:12.363Z,989.07
2024-01-24T07:59:12.367Z,989.04
2024-01-24T08:00:12.263Z,989.06
2024-01-24T08:01:12.360Z,989.07
2024-01-24T08:02:12.338Z,989.11
2024-01-24T08:03:12.270Z,989.14
2024-01-24T08:04:12.380Z,989.19
2024-01-24T08:05:12.270Z,989.19
2024-01-24T08:06:12.243Z,989.18
2024-01-24T08:07:12.251Z,989.14
2024-01-24T08:08:12.183Z,989.21
2024-01-24T08:09:13.271Z,989.24
2024-01-24T08:10:12.160Z,989.20
2024-01-24T08:11:12.229Z,989.22
2024-01-24T08:12:12.142Z,989.21
2024-01-24T08:13:12.161Z,989.22
2024-01-24T08:14:12.205Z,989.22
2024-01-24T08:15:12.229Z,989.21
2024-01-24T08:16:12.121Z,989.28
2024-01-24T08:17:12.197Z,989.26
2024-01-24T08:18:12.202Z,989.26
2024-01-24T08:19:12.283Z,989.28
2024-01-24T08:20:12.086Z,989.34
2024-01-24T08:21:12.086Z,989.35
2024-01-24T08:22:12.057Z,989.32
2024-01-24T08:23:12.134Z,989.22
2024-01-24T08:24:12.119Z,989.20
2024-01-24T08:25:12.078Z,989.23
2024-01-24T08:26:12.052Z,989.24
2024-01-24T08:27:12.064Z,989.24
2024-01-24T08:28:12.167Z,989.30
2024-01-24T08:29:19.039Z,989.33
2024-01-24T08:30:11.961Z,989.30
2024-01-24T08:31:11.967Z,989.22
2024-01-24T08:32:11.946Z,989.15
2024-01-24T08:33:12.208Z,989.14
2024-01-24T08:34:12.086Z,989.12
2024-01-24T08:35:11.961Z,989.14
2024-01-24T08:36:11.894Z,989.17
2024-01-24T08:37:11.960Z,989.06
2024-01-24T08:38:11.997Z,988.95
2024-01-24T08:39:13.058Z,988.80
2024-01-24T08:40:11.865Z,988.76
2024-01-24T08:41:11.897Z,988.89
2024-01-24T08:42:11.862Z,988.83
2024-01-24T08:43:11.959Z,988.83
2024-01-24T08:44:11.872Z,988.82
2024-01-24T08:45:11.829Z,988.76
2024-01-24T08:46:11.913Z,988.74
2024-01-24T08:47:11.844Z,988.82
2024-01-24T08:48:11.952Z,988.92
2024-01-24T08:49:11.948Z,988.90
2024-01-24T08:50:11.904Z,988.75
2024-01-24T08:51:11.760Z,988.62
2024-01-24T08:52:11.821Z,988.56
2024-01-24T08:53:11.879Z,988.55
2024-01-24T08:54:11.732Z,988.53
2024-01-24T08:55:11.860Z,988.46
2024-01-24T08:56:11.719Z,988.41
2024-01-24T08:57:11.731Z,988.37
2024-01-24T08:58:11.905Z,988.33
2024-01-24T08:59:11.688Z,988.29
2024-01-24T09:00:11.727Z,988.23
2024-01-24T09:01:11.753Z,988.15
2024-01-24T09:02:11.760Z,988.08
2024-01-24T09:03:11.672Z,988.07
2024-01-24T09:04:11.725Z,988.08
2024-01-24T09:05:11.719Z,988.06
2024-01-24T09:06:11.669Z,988.07
2024-01-24T09:07:11.699Z,988.13
2024-01-24T09:08:11.717Z,988.19
2024-01-24T09:09:11.622Z,988.23
2024-01-24T09:10:11.672Z,988.30
2024-01-24T09:11:11.595Z,988.32
2024-01-24T09:12:11.662Z,988.31
2024-01-24T09:13:11.641Z,988.23
2024-01-24T09:14:11.571Z,988.16
2024-01-24T09:15:11.546Z,988.11
2024-01-24T09:16:11.718Z,988.03
2024-01-24T09:17:11.997Z,988.03
2024-01-24T09:18:12.491Z,988.03
2024-01-24T09:19:11.631Z,988.13
2024-01-24T09:20:11.790Z,988.12
2024-01-24T09:21:11.556Z,988.18
2024-01-24T09:22:11.572Z,988.23
2024-01-24T09:23:11.495Z,988.22
2024-01-24T09:24:11.462Z,988.19
2024-01-24T09:25:13.163Z,988.21
2024-01-24T09:26:11.557Z,988.15
2024-01-24T09:27:11.466Z,988.11
2024-01-24T09:28:12.312Z,988.10
2024-01-24T09:29:11.424Z,987.99
2024-01-24T09:30:11.584Z,987.98
2024-01-24T09:31:11.500Z,988.03
2024-01-24T09:32:11.400Z,988.10
2024-01-24T09:33:11.580Z,988.08
2024-01-24T09:34:11.518Z,988.10
2024-01-24T09:35:11.978Z,988.10
2024-01-24T09:36:11.400Z,988.10
2024-01-24T09:37:11.338Z,988.09
2024-01-24T09:38:11.356Z,988.08
2024-01-24T09:39:11.295Z,988.11
2024-01-24T09:40:11.600Z,988.10
2024-01-24T09:41:11.421Z,988.10
2024-01-24T09:42:11.288Z,988.03
2024-01-24T09:43:11.311Z,988.08
2024-01-24T09:44:11.277Z,988.04
2024-01-24T09:45:11.322Z,987.92
2024-01-24T09:46:11.339Z,987.80
2024-01-24T09:47:11.228Z,987.78
2024-01-24T09:48:11.380Z,987.73
2024-01-24T09:49:11.457Z,987.66
2024-01-24T09:50:11.161Z,987.58
2024-01-24T09:51:11.290Z,987.61
2024-01-24T09:52:11.231Z,987.51
2024-01-24T09:53:11.167Z,987.56
2024-01-24T09:54:11.246Z,987.45
2024-01-24T09:55:11.578Z,987.51
2024-01-24T09:56:11.233Z,987.46
2024-01-24T09:57:11.189Z,987.46
2024-01-24T09:58:11.961Z,987.58
2024-01-24T09:59:11.181Z,987.58
2024-01-24T10:00:11.229Z,987.56
2024-01-24T10:01:11.180Z,987.56
2024-01-24T10:02:11.112Z,987.58
2024-01-24T10:03:11.092Z,987.54
2024-01-24T10:04:11.293Z,987.48
2024-01-24T10:05:11.100Z,987.46
2024-01-24T10:06:11.374Z,987.34
2024-01-24T10:07:11.107Z,987.24
2024-01-24T10:08:10.983Z,987.17
2024-01-24T10:09:11.152Z,987.06
2024-01-24T10:10:11.230Z,987.05
2024-01-24T10:11:11.052Z,987.05
2024-01-24T10:12:11.020Z,987.26
2024-01-24T10:13:11.101Z,987.39
2024-01-24T10:14:11.069Z,987.41
2024-01-24T10:15:11.001Z,987.36
2024-01-24T10:16:11.012Z,987.35
2024-01-24T10:17:10.969Z,987.39
2024-01-24T10:18:11.032Z,987.38
2024-01-24T10:19:11.095Z,987.33
2024-01-24T10:20:10.910Z,987.32
2024-01-24T10:21:10.890Z,987.35
2024-01-24T10:22:11.368Z,987.37
2024-01-24T10:23:10.904Z,987.31
2024-01-24T10:24:11.047Z,987.28
2024-01-24T10:25:11.039Z,987.25
2024-01-24T10:26:10.960Z,987.19
2024-01-24T10:27:10.843Z,987.08
2024-01-24T10:28:11.048Z,987.14
2024-01-24T10:29:10.806Z,987.18
2024-01-24T10:30:10.847Z,987.17
2024-01-24T10:31:10.865Z,987.16
2024-01-24T10:32:10.791Z,987.15
2024-01-24T10:33:10.966Z,987.13
2024-01-24T10:34:12.138Z,987.11
2024-01-24T10:35:11.002Z,987.05
2024-01-24T10:36:17.968Z,987.10
2024-01-24T10:37:10.805Z,987.12
2024-01-24T10:38:10.842Z,987.11
2024-01-24T10:39:10.718Z,986.99
2024-01-24T10:40:10.847Z,987.02
2024-01-24T10:41:10.699Z,986.98
2024-01-24T10:42:12.409Z,987.00
2024-01-24T10:43:10.922Z,986.99
2024-01-24T10:44:10.947Z,986.99
2024-01-24T10:45:10.715Z,986.98
2024-01-24T10:46:10.772Z,986.95
2024-01-24T10:47:10.721Z,987.03
2024-01-24T10:48:10.707Z,987.03
2024-01-24T10:49:10.785Z,987.01
2024-01-24T10:50:10.877Z,987.02
2024-01-24T10:51:10.628Z,987.06
2024-01-24T10:52:10.822Z,987.10
2024-01-24T10:53:10.616Z,987.10
2024-01-24T10:54:10.622Z,987.09
2024-01-24T10:55:10.654Z,987.07
2024-01-24T10:56:10.608Z,987.16
2024-01-24T10:57:10.638Z,987.21
2024-01-24T10:58:10.661Z,987.18
2024-01-24T10:59:10.535Z,987.17
2024-01-24T11:00:10.548Z,987.21
2024-01-24T11:01:10.697Z,987.17
2024-01-24T11:02:10.648Z,987.18
2024-01-24T11:03:10.589Z,987.18
2024-01-24T11:04:10.651Z,987.15
2024-01-24T11:05:10.542Z,987.11
2024-01-24T11:06:10.537Z,986.99
2024-01-24T11:07:10.510Z,987.00
2024-01-24T11:08:10.440Z,986.92
2024-01-24T11:09:10.426Z,986.84
2024-01-24T11:10:10.891Z,986.81
2024-01-24T11:11:10.521Z,986.82
2024-01-24T11:12:10.455Z,986.78
2024-01-24T11:13:10.495Z,986.65
2024-01-24T11:14:10.440Z,986.64
2024-01-24T11:15:10.426Z,986.63
2024-01-24T11:16:10.671Z,986.62
2024-01-24T11:17:10.370Z,986.62
2024-01-24T11:18:10.464Z,986.56
2024-01-24T11:19:10.414Z,986.47
2024-01-24T11:20:10.402Z,986.49
2024-01-24T11:21:10.456Z,986.52
2024-01-24T11:22:16.751Z,986.52
2024-01-24T11:23:10.393Z,986.61
2024-01-24T11:24:10.299Z,986.41
2024-01-24T11:25:10.370Z,986.41
2024-01-24T11:26:10.356Z,986.42
2024-01-24T11:27:10.270Z,986.23
2024-01-24T11:28:10.292Z,986.25
2024-01-24T11:29:12.856Z,986.28
2024-01-24T11:30:10.370Z,986.24
2024-01-24T11:31:10.364Z,986.29
2024-01-24T11:32:13.506Z,986.35
2024-01-24T11:33:10.260Z,986.36
2024-01-24T11:34:10.807Z,986.37
2024-01-24T11:35:10.242Z,986.45
2024-01-24T11:36:10.168Z,986.43
2024-01-24T11:37:10.232Z,986.49
2024-01-24T11:38:19.941Z,986.44
2024-01-24T11:39:10.150Z,986.48
2024-01-24T11:40:10.264Z,986.48
2024-01-24T11:41:10.183Z,986.38
2024-01-24T11:42:10.132Z,986.36
2024-01-24T11:43:10.231Z,986.33
2024-01-24T11:44:10.118Z,986.29
2024-01-24T11:45:10.192Z,986.24
2024-01-24T11:46:11.065Z,986.10
2024-01-24T11:47:10.063Z,986.13
2024-01-24T11:48:10.219Z,986.09
2024-01-24T11:49:10.123Z,986.11
2024-01-24T11:50:10.139Z,986.04
2024-01-24T11:51:10.111Z,986.02
2024-01-24T11:52:10.056Z,986.02
2024-01-24T11:53:10.033Z,985.99
2024-01-24T11:54:10.025Z,985.98
2024-01-24T11:55:10.142Z,985.95
2024-01-24T11:56:10.000Z,985.94
2024-01-24T11:57:10.032Z,985.97
2024-01-24T11:58:10.067Z,985.85
2024-01-24T11:59:10.088Z,985.74
2024-01-24T12:00:10.061Z,985.93
2024-01-24T12:01:10.077Z,985.93
2024-01-24T12:02:10.010Z,986.04
2024-01-24T12:03:09.989Z,985.90
2024-01-24T12:04:10.086Z,985.93
2024-01-24T12:05:09.986Z,985.84
2024-01-24T12:06:09.981Z,985.79
2024-01-24T12:07:10.080Z,985.78
2024-01-24T12:08:09.937Z,985.73
2024-01-24T12:09:09.883Z,985.69
2024-01-24T12:10:09.993Z,985.63
2024-01-24T12:11:09.834Z,985.56
2024-01-24T12:12:09.918Z,985.45
2024-01-24T12:13:09.934Z,985.44
2024-01-24T12:14:09.880Z,985.46
2024-01-24T12:15:09.789Z,985.39
2024-01-24T12:16:10.017Z,985.46
2024-01-24T12:17:09.825Z,985.35
2024-01-24T12:18:10.025Z,985.38
2024-01-24T12:19:09.994Z,985.40
2024-01-24T12:20:10.758Z,985.47
2024-01-24T12:21:09.887Z,985.39
2024-01-24T12:22:09.911Z,985.38
2024-01-24T12:23:09.816Z,985.47
2024-01-24T12:24:09.766Z,985.42
2024-01-24T12:25:09.866Z,985.42
2024-01-24T12:26:09.826Z,985.37
2024-01-24T12:27:09.770Z,985.31
2024-01-24T12:28:09.829Z,985.42